sensor_id;sensor_type;location;lat;lon;timestamp;P1;durP1;ratioP1;P2;durP2;ratioP2
12314;SDS011;23886;46.614;14.276;2022-10-19T00:01:49;18.93;;;17.03;;
12314;SDS011;23886;46.614;14.276;2022-10-19T00:04:16;20.93;;;16.57;;
12314;SDS011;23886;46.614;14.276;2022-10-19T00:06:43;22.93;;;17.50;;
12314;SDS011;23886;46.614;14.276;2022-10-19T00:09:11;18.97;;;16.97;;
12314;SDS011;23886;46.614;14.276;2022-10-19T00:11:42;20.07;;;17.60;;
12314;SDS011;23886;46.614;14.276;2022-10-19T00:14:10;19.03;;;16.30;;
12314;SDS011;23886;46.614;14.276;2022-10-19T00:16:39;19.40;;;17.23;;
12314;SDS011;23886;46.614;14.276;2022-10-19T00:19:07;19.37;;;17.13;;
12314;SDS011;23886;46.614;14.276;2022-10-19T00:21:37;17.97;;;16.07;;
12314;SDS011;23886;46.614;14.276;2022-10-19T00:24:04;19.40;;;17.30;;
12314;SDS011;23886;46.614;14.276;2022-10-19T00:26:32;21.63;;;16.90;;
12314;SDS011;23886;46.614;14.276;2022-10-19T00:29:01;18.40;;;16.40;;
12314;SDS011;23886;46.614;14.276;2022-10-19T00:31:29;18.87;;;16.63;;
12314;SDS011;23886;46.614;14.276;2022-10-19T00:33:56;18.07;;;16.17;;
12314;SDS011;23886;46.614;14.276;2022-10-19T00:36:24;21.73;;;16.57;;
12314;SDS011;23886;46.614;14.276;2022-10-19T00:38:53;28.43;;;19.00;;
12314;SDS011;23886;46.614;14.276;2022-10-19T00:41:21;23.07;;;17.97;;
12314;SDS011;23886;46.614;14.276;2022-10-19T00:43:53;30.97;;;19.80;;
12314;SDS011;23886;46.614;14.276;2022-10-19T00:46:24;28.93;;;19.73;;
12314;SDS011;23886;46.614;14.276;2022-10-19T00:48:52;30.30;;;19.53;;
12314;SDS011;23886;46.614;14.276;2022-10-19T00:51:24;26.70;;;18.17;;
12314;SDS011;23886;46.614;14.276;2022-10-19T00:53:53;21.13;;;18.03;;
12314;SDS011;23886;46.614;14.276;2022-10-19T00:56:21;22.33;;;17.80;;
12314;SDS011;23886;46.614;14.276;2022-10-19T00:58:48;27.53;;;18.60;;
12314;SDS011;23886;46.614;14.276;2022-10-19T01:01:16;24.10;;;18.50;;
12314;SDS011;23886;46.614;14.276;2022-10-19T01:03:47;23.33;;;18.87;;
12314;SDS011;23886;46.614;14.276;2022-10-19T01:06:14;22.77;;;18.63;;
12314;SDS011;23886;46.614;14.276;2022-10-19T01:08:43;25.17;;;17.97;;
12314;SDS011;23886;46.614;14.276;2022-10-19T01:11:14;28.40;;;19.67;;
12314;SDS011;23886;46.614;14.276;2022-10-19T01:13:52;25.33;;;18.77;;
12314;SDS011;23886;46.614;14.276;2022-10-19T01:16:29;25.50;;;18.83;;
12314;SDS011;23886;46.614;14.276;2022-10-19T01:19:11;24.63;;;18.90;;
12314;SDS011;23886;46.614;14.276;2022-10-19T01:21:54;22.53;;;18.10;;
12314;SDS011;23886;46.614;14.276;2022-10-19T01:24:39;21.23;;;17.17;;
12314;SDS011;23886;46.614;14.276;2022-10-19T01:27:23;24.87;;;18.30;;
12314;SDS011;23886;46.614;14.276;2022-10-19T01:30:10;23.00;;;18.30;;
12314;SDS011;23886;46.614;14.276;2022-10-19T01:32:51;22.40;;;17.97;;
12314;SDS011;23886;46.614;14.276;2022-10-19T01:35:28;20.17;;;17.67;;
12314;SDS011;23886;46.614;14.276;2022-10-19T01:38:04;22.47;;;16.90;;
12314;SDS011;23886;46.614;14.276;2022-10-19T01:40:40;22.27;;;18.03;;
12314;SDS011;23886;46.614;14.276;2022-10-19T01:43:15;22.60;;;17.40;;
12314;SDS011;23886;46.614;14.276;2022-10-19T01:45:53;25.70;;;17.60;;
12314;SDS011;23886;46.614;14.276;2022-10-19T01:48:24;20.70;;;16.70;;
12314;SDS011;23886;46.614;14.276;2022-10-19T01:50:56;23.33;;;17.47;;
12314;SDS011;23886;46.614;14.276;2022-10-19T01:53:25;18.23;;;16.17;;
12314;SDS011;23886;46.614;14.276;2022-10-19T01:55:57;16.90;;;15.10;;
12314;SDS011;23886;46.614;14.276;2022-10-19T01:58:26;18.13;;;15.07;;
12314;SDS011;23886;46.614;14.276;2022-10-19T02:00:58;19.23;;;15.50;;
12314;SDS011;23886;46.614;14.276;2022-10-19T02:03:29;18.57;;;15.37;;
12314;SDS011;23886;46.614;14.276;2022-10-19T02:05:57;15.20;;;13.67;;
12314;SDS011;23886;46.614;14.276;2022-10-19T02:08:26;16.60;;;13.50;;
12314;SDS011;23886;46.614;14.276;2022-10-19T02:10:56;16.53;;;14.83;;
12314;SDS011;23886;46.614;14.276;2022-10-19T02:13:24;19.70;;;15.90;;
12314;SDS011;23886;46.614;14.276;2022-10-19T02:15:54;19.57;;;15.63;;
12314;SDS011;23886;46.614;14.276;2022-10-19T02:18:26;20.80;;;16.37;;
12314;SDS011;23886;46.614;14.276;2022-10-19T02:20:56;27.47;;;17.67;;
12314;SDS011;23886;46.614;14.276;2022-10-19T02:23:25;27.40;;;17.80;;
12314;SDS011;23886;46.614;14.276;2022-10-19T02:25:52;27.47;;;18.83;;
12314;SDS011;23886;46.614;14.276;2022-10-19T02:28:21;24.77;;;17.53;;
12314;SDS011;23886;46.614;14.276;2022-10-19T02:30:49;28.20;;;18.63;;
12314;SDS011;23886;46.614;14.276;2022-10-19T02:33:16;22.47;;;16.57;;
12314;SDS011;23886;46.614;14.276;2022-10-19T02:35:44;27.33;;;18.20;;
12314;SDS011;23886;46.614;14.276;2022-10-19T02:38:12;30.40;;;18.63;;
12314;SDS011;23886;46.614;14.276;2022-10-19T02:40:48;28.70;;;18.20;;
12314;SDS011;23886;46.614;14.276;2022-10-19T02:43:18;34.03;;;19.30;;
12314;SDS011;23886;46.614;14.276;2022-10-19T02:45:48;29.83;;;19.77;;
12314;SDS011;23886;46.614;14.276;2022-10-19T02:48:20;27.20;;;20.10;;
12314;SDS011;23886;46.614;14.276;2022-10-19T02:50:53;21.27;;;17.53;;
12314;SDS011;23886;46.614;14.276;2022-10-19T02:53:20;33.13;;;21.43;;
12314;SDS011;23886;46.614;14.276;2022-10-19T02:55:47;39.07;;;20.93;;
12314;SDS011;23886;46.614;14.276;2022-10-19T02:58:15;24.17;;;18.70;;
12314;SDS011;23886;46.614;14.276;2022-10-19T03:00:42;31.50;;;19.07;;
12314;SDS011;23886;46.614;14.276;2022-10-19T03:03:09;33.17;;;19.93;;
12314;SDS011;23886;46.614;14.276;2022-10-19T03:05:36;25.70;;;19.27;;
12314;SDS011;23886;46.614;14.276;2022-10-19T03:08:05;24.23;;;19.47;;
12314;SDS011;23886;46.614;14.276;2022-10-19T03:10:32;26.90;;;19.50;;
12314;SDS011;23886;46.614;14.276;2022-10-19T03:12:59;27.43;;;20.37;;
12314;SDS011;23886;46.614;14.276;2022-10-19T03:15:26;32.20;;;21.90;;
12314;SDS011;23886;46.614;14.276;2022-10-19T03:17:54;33.07;;;22.47;;
12314;SDS011;23886;46.614;14.276;2022-10-19T03:20:21;38.33;;;23.03;;
12314;SDS011;23886;46.614;14.276;2022-10-19T03:22:49;34.50;;;21.37;;
12314;SDS011;23886;46.614;14.276;2022-10-19T03:25:17;29.67;;;21.53;;
12314;SDS011;23886;46.614;14.276;2022-10-19T03:27:44;24.37;;;20.47;;
12314;SDS011;23886;46.614;14.276;2022-10-19T03:30:11;30.97;;;21.70;;
12314;SDS011;23886;46.614;14.276;2022-10-19T03:32:38;29.77;;;20.80;;
12314;SDS011;23886;46.614;14.276;2022-10-19T03:35:06;48.57;;;26.03;;
12314;SDS011;23886;46.614;14.276;2022-10-19T03:37:33;41.63;;;25.00;;
12314;SDS011;23886;46.614;14.276;2022-10-19T03:40:00;47.97;;;24.53;;
12314;SDS011;23886;46.614;14.276;2022-10-19T03:42:29;39.03;;;23.33;;
12314;SDS011;23886;46.614;14.276;2022-10-19T03:44:56;36.97;;;22.27;;
12314;SDS011;23886;46.614;14.276;2022-10-19T03:47:23;28.27;;;20.27;;
12314;SDS011;23886;46.614;14.276;2022-10-19T03:49:49;39.93;;;21.17;;
12314;SDS011;23886;46.614;14.276;2022-10-19T03:52:16;26.10;;;17.87;;
12314;SDS011;23886;46.614;14.276;2022-10-19T03:54:44;89.67;;;20.97;;
12314;SDS011;23886;46.614;14.276;2022-10-19T03:57:11;25.87;;;16.90;;
12314;SDS011;23886;46.614;14.276;2022-10-19T03:59:39;26.23;;;19.07;;
12314;SDS011;23886;46.614;14.276;2022-10-19T04:02:06;33.03;;;19.33;;
12314;SDS011;23886;46.614;14.276;2022-10-19T04:04:33;41.40;;;18.80;;
12314;SDS011;23886;46.614;14.276;2022-10-19T04:07:00;35.70;;;17.10;;
12314;SDS011;23886;46.614;14.276;2022-10-19T04:09:27;46.77;;;17.87;;
12314;SDS011;23886;46.614;14.276;2022-10-19T04:11:54;25.63;;;15.00;;
12314;SDS011;23886;46.614;14.276;2022-10-19T04:14:21;49.03;;;17.20;;
12314;SDS011;23886;46.614;14.276;2022-10-19T04:16:51;27.40;;;16.33;;
12314;SDS011;23886;46.614;14.276;2022-10-19T04:19:18;67.53;;;17.40;;
12314;SDS011;23886;46.614;14.276;2022-10-19T04:21:46;31.03;;;15.90;;
12314;SDS011;23886;46.614;14.276;2022-10-19T04:24:15;23.87;;;16.40;;
12314;SDS011;23886;46.614;14.276;2022-10-19T04:26:44;17.27;;;15.53;;
12314;SDS011;23886;46.614;14.276;2022-10-19T04:29:13;28.40;;;16.63;;
12314;SDS011;23886;46.614;14.276;2022-10-19T04:31:40;17.00;;;14.20;;
12314;SDS011;23886;46.614;14.276;2022-10-19T04:34:08;16.10;;;14.20;;
12314;SDS011;23886;46.614;14.276;2022-10-19T04:36:36;21.43;;;15.33;;
12314;SDS011;23886;46.614;14.276;2022-10-19T04:39:03;36.63;;;16.20;;
12314;SDS011;23886;46.614;14.276;2022-10-19T04:41:31;36.10;;;16.50;;
12314;SDS011;23886;46.614;14.276;2022-10-19T04:43:59;19.93;;;15.97;;
12314;SDS011;23886;46.614;14.276;2022-10-19T04:46:28;18.00;;;14.20;;
12314;SDS011;23886;46.614;14.276;2022-10-19T04:48:56;38.00;;;15.13;;
12314;SDS011;23886;46.614;14.276;2022-10-19T04:51:25;60.60;;;16.30;;
12314;SDS011;23886;46.614;14.276;2022-10-19T04:53:52;28.63;;;14.67;;
12314;SDS011;23886;46.614;14.276;2022-10-19T04:56:22;39.77;;;14.63;;
12314;SDS011;23886;46.614;14.276;2022-10-19T04:58:53;31.93;;;15.97;;
12314;SDS011;23886;46.614;14.276;2022-10-19T05:01:20;23.70;;;14.83;;
12314;SDS011;23886;46.614;14.276;2022-10-19T05:03:51;37.53;;;15.00;;
12314;SDS011;23886;46.614;14.276;2022-10-19T05:06:19;38.10;;;15.83;;
12314;SDS011;23886;46.614;14.276;2022-10-19T05:08:48;50.17;;;15.57;;
12314;SDS011;23886;46.614;14.276;2022-10-19T05:11:16;17.83;;;13.40;;
12314;SDS011;23886;46.614;14.276;2022-10-19T05:13:44;19.73;;;14.60;;
12314;SDS011;23886;46.614;14.276;2022-10-19T05:16:12;16.60;;;12.93;;
12314;SDS011;23886;46.614;14.276;2022-10-19T05:18:40;12.83;;;11.40;;
12314;SDS011;23886;46.614;14.276;2022-10-19T05:21:08;12.07;;;10.83;;
12314;SDS011;23886;46.614;14.276;2022-10-19T05:23:37;12.57;;;11.27;;
12314;SDS011;23886;46.614;14.276;2022-10-19T05:26:07;13.83;;;12.40;;
12314;SDS011;23886;46.614;14.276;2022-10-19T05:28:35;12.70;;;11.07;;
12314;SDS011;23886;46.614;14.276;2022-10-19T05:31:03;14.83;;;13.20;;
12314;SDS011;23886;46.614;14.276;2022-10-19T05:33:31;15.53;;;13.07;;
12314;SDS011;23886;46.614;14.276;2022-10-19T05:35:58;15.77;;;14.00;;
12314;SDS011;23886;46.614;14.276;2022-10-19T05:38:34;16.80;;;13.67;;
12314;SDS011;23886;46.614;14.276;2022-10-19T05:41:01;18.37;;;13.73;;
12314;SDS011;23886;46.614;14.276;2022-10-19T05:43:29;14.07;;;12.57;;
12314;SDS011;23886;46.614;14.276;2022-10-19T05:45:56;14.33;;;12.83;;
12314;SDS011;23886;46.614;14.276;2022-10-19T05:48:27;17.30;;;12.60;;
12314;SDS011;23886;46.614;14.276;2022-10-19T05:50:57;16.53;;;13.47;;
12314;SDS011;23886;46.614;14.276;2022-10-19T05:53:24;14.47;;;13.07;;
12314;SDS011;23886;46.614;14.276;2022-10-19T05:55:51;13.93;;;12.53;;
12314;SDS011;23886;46.614;14.276;2022-10-19T05:58:17;13.90;;;12.43;;
12314;SDS011;23886;46.614;14.276;2022-10-19T06:00:50;13.87;;;12.37;;
12314;SDS011;23886;46.614;14.276;2022-10-19T06:03:18;15.57;;;13.23;;
12314;SDS011;23886;46.614;14.276;2022-10-19T06:05:46;17.50;;;13.67;;
12314;SDS011;23886;46.614;14.276;2022-10-19T06:08:13;14.90;;;12.83;;
12314;SDS011;23886;46.614;14.276;2022-10-19T06:10:40;20.80;;;13.37;;
12314;SDS011;23886;46.614;14.276;2022-10-19T06:13:07;21.00;;;13.50;;
12314;SDS011;23886;46.614;14.276;2022-10-19T06:15:35;71.80;;;18.10;;
12314;SDS011;23886;46.614;14.276;2022-10-19T06:18:05;19.50;;;13.63;;
12314;SDS011;23886;46.614;14.276;2022-10-19T06:20:33;15.50;;;12.90;;
12314;SDS011;23886;46.614;14.276;2022-10-19T06:23:00;19.07;;;15.03;;
12314;SDS011;23886;46.614;14.276;2022-10-19T06:25:28;19.33;;;14.57;;
12314;SDS011;23886;46.614;14.276;2022-10-19T06:27:55;19.23;;;14.93;;
12314;SDS011;23886;46.614;14.276;2022-10-19T06:30:22;22.13;;;15.80;;
12314;SDS011;23886;46.614;14.276;2022-10-19T06:32:49;18.07;;;15.63;;
12314;SDS011;23886;46.614;14.276;2022-10-19T06:35:18;22.27;;;16.57;;
12314;SDS011;23886;46.614;14.276;2022-10-19T06:37:45;19.33;;;15.17;;
12314;SDS011;23886;46.614;14.276;2022-10-19T06:40:12;18.33;;;14.67;;
12314;SDS011;23886;46.614;14.276;2022-10-19T06:42:39;17.67;;;13.50;;
12314;SDS011;23886;46.614;14.276;2022-10-19T06:45:07;15.70;;;14.00;;
12314;SDS011;23886;46.614;14.276;2022-10-19T06:47:35;16.93;;;14.30;;
12314;SDS011;23886;46.614;14.276;2022-10-19T06:50:03;19.47;;;14.20;;
12314;SDS011;23886;46.614;14.276;2022-10-19T06:52:32;17.60;;;13.83;;
12314;SDS011;23886;46.614;14.276;2022-10-19T06:55:00;18.70;;;14.63;;
12314;SDS011;23886;46.614;14.276;2022-10-19T06:57:27;20.07;;;14.20;;
12314;SDS011;23886;46.614;14.276;2022-10-19T06:59:53;21.13;;;14.83;;
12314;SDS011;23886;46.614;14.276;2022-10-19T07:02:20;19.47;;;15.47;;
12314;SDS011;23886;46.614;14.276;2022-10-19T07:04:47;16.53;;;14.73;;
12314;SDS011;23886;46.614;14.276;2022-10-19T07:07:15;15.13;;;13.53;;
12314;SDS011;23886;46.614;14.276;2022-10-19T07:09:43;14.90;;;13.30;;
12314;SDS011;23886;46.614;14.276;2022-10-19T07:12:10;17.27;;;14.87;;
12314;SDS011;23886;46.614;14.276;2022-10-19T07:14:37;16.00;;;14.23;;
12314;SDS011;23886;46.614;14.276;2022-10-19T07:17:04;16.10;;;13.90;;
12314;SDS011;23886;46.614;14.276;2022-10-19T07:19:31;14.77;;;13.07;;
12314;SDS011;23886;46.614;14.276;2022-10-19T07:21:58;13.23;;;11.87;;
12314;SDS011;23886;46.614;14.276;2022-10-19T07:24:25;15.17;;;13.67;;
12314;SDS011;23886;46.614;14.276;2022-10-19T07:26:54;14.97;;;13.37;;
12314;SDS011;23886;46.614;14.276;2022-10-19T07:29:21;13.03;;;11.73;;
12314;SDS011;23886;46.614;14.276;2022-10-19T07:31:48;13.63;;;12.10;;
12314;SDS011;23886;46.614;14.276;2022-10-19T07:34:15;12.50;;;11.17;;
12314;SDS011;23886;46.614;14.276;2022-10-19T07:36:43;14.50;;;13.00;;
12314;SDS011;23886;46.614;14.276;2022-10-19T07:39:15;14.53;;;12.87;;
12314;SDS011;23886;46.614;14.276;2022-10-19T07:41:42;13.73;;;12.33;;
12314;SDS011;23886;46.614;14.276;2022-10-19T07:44:11;14.10;;;11.60;;
12314;SDS011;23886;46.614;14.276;2022-10-19T07:46:38;14.63;;;12.33;;
12314;SDS011;23886;46.614;14.276;2022-10-19T07:49:11;13.27;;;11.73;;
12314;SDS011;23886;46.614;14.276;2022-10-19T07:51:40;13.30;;;11.70;;
12314;SDS011;23886;46.614;14.276;2022-10-19T07:54:07;13.90;;;11.73;;
12314;SDS011;23886;46.614;14.276;2022-10-19T07:56:34;13.07;;;11.60;;
12314;SDS011;23886;46.614;14.276;2022-10-19T07:59:02;11.37;;;10.17;;
12314;SDS011;23886;46.614;14.276;2022-10-19T08:01:32;12.30;;;10.27;;
12314;SDS011;23886;46.614;14.276;2022-10-19T08:04:06;15.43;;;11.40;;
12314;SDS011;23886;46.614;14.276;2022-10-19T08:06:33;12.53;;;11.30;;
12314;SDS011;23886;46.614;14.276;2022-10-19T08:09:01;13.33;;;11.90;;
12314;SDS011;23886;46.614;14.276;2022-10-19T08:11:30;15.20;;;13.07;;
12314;SDS011;23886;46.614;14.276;2022-10-19T08:13:58;15.93;;;13.20;;
12314;SDS011;23886;46.614;14.276;2022-10-19T08:16:27;15.80;;;13.73;;
12314;SDS011;23886;46.614;14.276;2022-10-19T08:18:59;19.07;;;13.77;;
12314;SDS011;23886;46.614;14.276;2022-10-19T08:21:27;18.23;;;13.50;;
12314;SDS011;23886;46.614;14.276;2022-10-19T08:23:55;16.47;;;12.07;;
12314;SDS011;23886;46.614;14.276;2022-10-19T08:26:22;16.40;;;13.27;;
12314;SDS011;23886;46.614;14.276;2022-10-19T08:28:50;18.57;;;13.43;;
12314;SDS011;23886;46.614;14.276;2022-10-19T08:31:18;15.83;;;14.23;;
12314;SDS011;23886;46.614;14.276;2022-10-19T08:33:47;15.87;;;13.97;;
12314;SDS011;23886;46.614;14.276;2022-10-19T08:36:16;18.83;;;14.17;;
12314;SDS011;23886;46.614;14.276;2022-10-19T08:38:45;14.87;;;13.37;;
12314;SDS011;23886;46.614;14.276;2022-10-19T08:41:17;16.67;;;13.10;;
12314;SDS011;23886;46.614;14.276;2022-10-19T08:43:51;16.97;;;15.23;;
12314;SDS011;23886;46.614;14.276;2022-10-19T08:46:28;17.13;;;14.63;;
12314;SDS011;23886;46.614;14.276;2022-10-19T08:49:05;15.77;;;13.93;;
12314;SDS011;23886;46.614;14.276;2022-10-19T08:51:36;16.60;;;14.63;;
12314;SDS011;23886;46.614;14.276;2022-10-19T08:54:07;15.77;;;13.93;;
12314;SDS011;23886;46.614;14.276;2022-10-19T08:56:41;16.10;;;14.40;;
12314;SDS011;23886;46.614;14.276;2022-10-19T08:59:17;14.70;;;13.17;;
12314;SDS011;23886;46.614;14.276;2022-10-19T09:01:52;20.57;;;15.17;;
12314;SDS011;23886;46.614;14.276;2022-10-19T09:04:22;17.73;;;15.77;;
12314;SDS011;23886;46.614;14.276;2022-10-19T09:06:56;18.03;;;15.30;;
12314;SDS011;23886;46.614;14.276;2022-10-19T09:09:32;16.93;;;15.23;;
12314;SDS011;23886;46.614;14.276;2022-10-19T09:12:05;17.70;;;15.80;;
12314;SDS011;23886;46.614;14.276;2022-10-19T09:14:33;20.37;;;17.10;;
12314;SDS011;23886;46.614;14.276;2022-10-19T09:17:05;21.17;;;17.20;;
12314;SDS011;23886;46.614;14.276;2022-10-19T09:19:38;21.00;;;17.87;;
12314;SDS011;23886;46.614;14.276;2022-10-19T09:22:08;20.43;;;18.23;;
12314;SDS011;23886;46.614;14.276;2022-10-19T09:24:45;19.63;;;16.70;;
12314;SDS011;23886;46.614;14.276;2022-10-19T09:27:20;20.43;;;18.23;;
12314;SDS011;23886;46.614;14.276;2022-10-19T09:29:49;19.47;;;16.63;;
12314;SDS011;23886;46.614;14.276;2022-10-19T09:32:22;17.83;;;16.00;;
12314;SDS011;23886;46.614;14.276;2022-10-19T09:34:53;18.60;;;16.70;;
12314;SDS011;23886;46.614;14.276;2022-10-19T09:37:26;20.03;;;17.27;;
12314;SDS011;23886;46.614;14.276;2022-10-19T09:39:54;19.33;;;16.63;;
12314;SDS011;23886;46.614;14.276;2022-10-19T09:42:22;17.90;;;15.90;;
12314;SDS011;23886;46.614;14.276;2022-10-19T09:44:53;17.77;;;15.87;;
12314;SDS011;23886;46.614;14.276;2022-10-19T09:50:15;15.23;;;13.70;;
12314;SDS011;23886;46.614;14.276;2022-10-19T09:52:45;16.23;;;14.20;;
12314;SDS011;23886;46.614;14.276;2022-10-19T09:55:18;16.10;;;14.60;;
12314;SDS011;23886;46.614;14.276;2022-10-19T09:58:01;15.23;;;13.70;;
12314;SDS011;23886;46.614;14.276;2022-10-19T10:00:33;14.60;;;13.20;;
12314;SDS011;23886;46.614;14.276;2022-10-19T10:03:03;16.60;;;14.13;;
12314;SDS011;23886;46.614;14.276;2022-10-19T10:05:32;15.60;;;13.90;;
12314;SDS011;23886;46.614;14.276;2022-10-19T10:08:02;14.73;;;13.23;;
12314;SDS011;23886;46.614;14.276;2022-10-19T10:10:34;14.30;;;12.73;;
12314;SDS011;23886;46.614;14.276;2022-10-19T10:13:04;13.63;;;12.20;;
12314;SDS011;23886;46.614;14.276;2022-10-19T10:15:34;14.07;;;12.67;;
12314;SDS011;23886;46.614;14.276;2022-10-19T10:18:10;15.57;;;12.07;;
12314;SDS011;23886;46.614;14.276;2022-10-19T10:20:41;14.37;;;12.47;;
12314;SDS011;23886;46.614;14.276;2022-10-19T10:23:25;12.80;;;11.40;;
12314;SDS011;23886;46.614;14.276;2022-10-19T10:25:55;14.77;;;11.77;;
12314;SDS011;23886;46.614;14.276;2022-10-19T10:28:24;13.07;;;11.33;;
12314;SDS011;23886;46.614;14.276;2022-10-19T10:30:53;12.43;;;11.23;;
12314;SDS011;23886;46.614;14.276;2022-10-19T10:33:28;14.23;;;11.53;;
12314;SDS011;23886;46.614;14.276;2022-10-19T10:36:00;12.07;;;10.87;;
12314;SDS011;23886;46.614;14.276;2022-10-19T10:38:31;11.87;;;9.70;;
12314;SDS011;23886;46.614;14.276;2022-10-19T10:41:01;12.00;;;10.80;;
12314;SDS011;23886;46.614;14.276;2022-10-19T10:43:32;11.37;;;10.27;;
12314;SDS011;23886;46.614;14.276;2022-10-19T10:46:03;12.13;;;11.03;;
12314;SDS011;23886;46.614;14.276;2022-10-19T10:48:35;11.30;;;10.17;;
12314;SDS011;23886;46.614;14.276;2022-10-19T10:51:07;13.13;;;11.03;;
12314;SDS011;23886;46.614;14.276;2022-10-19T10:53:46;15.17;;;10.43;;
12314;SDS011;23886;46.614;14.276;2022-10-19T10:56:18;11.10;;;10.00;;
12314;SDS011;23886;46.614;14.276;2022-10-19T10:58:53;11.27;;;10.07;;
12314;SDS011;23886;46.614;14.276;2022-10-19T11:01:25;11.80;;;10.70;;
12314;SDS011;23886;46.614;14.276;2022-10-19T11:03:58;11.87;;;10.73;;
12314;SDS011;23886;46.614;14.276;2022-10-19T11:06:28;11.37;;;10.23;;
12314;SDS011;23886;46.614;14.276;2022-10-19T11:09:06;11.53;;;10.43;;
12314;SDS011;23886;46.614;14.276;2022-10-19T11:11:39;11.53;;;10.47;;
12314;SDS011;23886;46.614;14.276;2022-10-19T11:14:26;12.33;;;10.07;;
12314;SDS011;23886;46.614;14.276;2022-10-19T11:16:58;12.03;;;10.83;;
12314;SDS011;23886;46.614;14.276;2022-10-19T11:19:32;10.93;;;9.87;;
12314;SDS011;23886;46.614;14.276;2022-10-19T11:22:02;10.93;;;9.83;;
12314;SDS011;23886;46.614;14.276;2022-10-19T11:24:41;10.33;;;9.27;;
12314;SDS011;23886;46.614;14.276;2022-10-19T11:27:17;11.87;;;9.20;;
12314;SDS011;23886;46.614;14.276;2022-10-19T11:29:55;10.90;;;9.77;;
12314;SDS011;23886;46.614;14.276;2022-10-19T11:32:32;10.40;;;9.30;;
12314;SDS011;23886;46.614;14.276;2022-10-19T11:35:12;10.30;;;9.30;;
12314;SDS011;23886;46.614;14.276;2022-10-19T11:37:57;9.70;;;8.70;;
12314;SDS011;23886;46.614;14.276;2022-10-19T11:40:33;11.60;;;9.70;;
12314;SDS011;23886;46.614;14.276;2022-10-19T11:43:04;9.53;;;8.63;;
12314;SDS011;23886;46.614;14.276;2022-10-19T11:45:40;10.20;;;9.20;;
12314;SDS011;23886;46.614;14.276;2022-10-19T11:48:20;10.43;;;8.73;;
12314;SDS011;23886;46.614;14.276;2022-10-19T11:50:57;11.30;;;8.33;;
12314;SDS011;23886;46.614;14.276;2022-10-19T11:53:33;9.90;;;7.93;;
12314;SDS011;23886;46.614;14.276;2022-10-19T11:56:11;9.30;;;8.40;;
12314;SDS011;23886;46.614;14.276;2022-10-19T11:58:50;11.30;;;9.10;;
12314;SDS011;23886;46.614;14.276;2022-10-19T12:01:29;10.07;;;8.73;;
12314;SDS011;23886;46.614;14.276;2022-10-19T12:04:09;8.90;;;8.00;;
12314;SDS011;23886;46.614;14.276;2022-10-19T12:06:49;10.30;;;7.93;;
12314;SDS011;23886;46.614;14.276;2022-10-19T12:09:28;8.17;;;7.47;;
12314;SDS011;23886;46.614;14.276;2022-10-19T12:12:18;8.97;;;7.50;;
12314;SDS011;23886;46.614;14.276;2022-10-19T12:14:53;9.53;;;7.27;;
12314;SDS011;23886;46.614;14.276;2022-10-19T12:17:42;12.20;;;8.03;;
12314;SDS011;23886;46.614;14.276;2022-10-19T12:20:15;7.70;;;6.90;;
12314;SDS011;23886;46.614;14.276;2022-10-19T12:22:47;8.23;;;6.70;;
12314;SDS011;23886;46.614;14.276;2022-10-19T12:25:15;9.70;;;7.53;;
12314;SDS011;23886;46.614;14.276;2022-10-19T12:27:44;9.10;;;6.43;;
12314;SDS011;23886;46.614;14.276;2022-10-19T12:30:15;7.87;;;6.93;;
12314;SDS011;23886;46.614;14.276;2022-10-19T12:32:50;9.07;;;6.90;;
12314;SDS011;23886;46.614;14.276;2022-10-19T12:35:33;9.20;;;7.00;;
12314;SDS011;23886;46.614;14.276;2022-10-19T12:38:18;7.63;;;6.93;;
12314;SDS011;23886;46.614;14.276;2022-10-19T12:40:52;11.53;;;7.60;;
12314;SDS011;23886;46.614;14.276;2022-10-19T12:43:27;8.20;;;7.17;;
12314;SDS011;23886;46.614;14.276;2022-10-19T12:46:04;7.80;;;7.00;;
12314;SDS011;23886;46.614;14.276;2022-10-19T12:48:38;9.77;;;6.80;;
12314;SDS011;23886;46.614;14.276;2022-10-19T12:51:06;8.43;;;6.80;;
12314;SDS011;23886;46.614;14.276;2022-10-19T12:53:37;7.77;;;6.90;;
12314;SDS011;23886;46.614;14.276;2022-10-19T12:56:08;7.50;;;6.73;;
12314;SDS011;23886;46.614;14.276;2022-10-19T12:58:45;8.23;;;7.33;;
12314;SDS011;23886;46.614;14.276;2022-10-19T13:01:18;6.60;;;6.00;;
12314;SDS011;23886;46.614;14.276;2022-10-19T13:03:47;8.60;;;7.33;;
12314;SDS011;23886;46.614;14.276;2022-10-19T13:06:18;8.03;;;6.40;;
12314;SDS011;23886;46.614;14.276;2022-10-19T13:08:57;8.10;;;6.23;;
12314;SDS011;23886;46.614;14.276;2022-10-19T13:11:27;9.43;;;7.03;;
12314;SDS011;23886;46.614;14.276;2022-10-19T13:13:56;9.87;;;7.20;;
12314;SDS011;23886;46.614;14.276;2022-10-19T13:16:31;7.80;;;7.10;;
12314;SDS011;23886;46.614;14.276;2022-10-19T13:19:31;8.57;;;6.73;;
12314;SDS011;23886;46.614;14.276;2022-10-19T13:22:22;8.83;;;6.60;;
12314;SDS011;23886;46.614;14.276;2022-10-19T13:27:51;7.30;;;6.60;;
12314;SDS011;23886;46.614;14.276;2022-10-19T13:36:16;7.00;;;6.30;;
12314;SDS011;23886;46.614;14.276;2022-10-19T13:38:46;7.15;;;6.43;;
12314;SDS011;23886;46.614;14.276;2022-10-19T13:41:43;6.18;;;5.68;;
12314;SDS011;23886;46.614;14.276;2022-10-19T13:44:28;7.13;;;6.47;;
12314;SDS011;23886;46.614;14.276;2022-10-19T13:47:23;7.82;;;6.32;;
12314;SDS011;23886;46.614;14.276;2022-10-19T13:56:00;7.22;;;5.75;;
12314;SDS011;23886;46.614;14.276;2022-10-19T13:58:58;6.18;;;5.10;;
12314;SDS011;23886;46.614;14.276;2022-10-19T14:01:44;8.55;;;5.85;;
12314;SDS011;23886;46.614;14.276;2022-10-19T14:04:21;8.13;;;6.07;;
12314;SDS011;23886;46.614;14.276;2022-10-19T14:06:56;7.30;;;5.43;;
12314;SDS011;23886;46.614;14.276;2022-10-19T14:09:44;6.30;;;5.60;;
12314;SDS011;23886;46.614;14.276;2022-10-19T14:12:23;8.32;;;5.45;;
12314;SDS011;23886;46.614;14.276;2022-10-19T14:14:52;7.03;;;4.95;;
12314;SDS011;23886;46.614;14.276;2022-10-19T14:17:19;9.40;;;5.70;;
12314;SDS011;23886;46.614;14.276;2022-10-19T14:19:50;5.60;;;5.10;;
12314;SDS011;23886;46.614;14.276;2022-10-19T14:22:21;5.50;;;4.47;;
12314;SDS011;23886;46.614;14.276;2022-10-19T14:24:50;7.40;;;5.18;;
12314;SDS011;23886;46.614;14.276;2022-10-19T14:27:19;5.88;;;5.35;;
12314;SDS011;23886;46.614;14.276;2022-10-19T14:29:50;5.88;;;5.38;;
12314;SDS011;23886;46.614;14.276;2022-10-19T14:32:20;7.20;;;5.10;;
12314;SDS011;23886;46.614;14.276;2022-10-19T14:34:50;6.18;;;5.30;;
12314;SDS011;23886;46.614;14.276;2022-10-19T14:37:18;6.43;;;5.07;;
12314;SDS011;23886;46.614;14.276;2022-10-19T14:39:56;5.88;;;5.13;;
12314;SDS011;23886;46.614;14.276;2022-10-19T14:42:42;5.93;;;4.90;;
12314;SDS011;23886;46.614;14.276;2022-10-19T14:45:15;5.32;;;4.82;;
12314;SDS011;23886;46.614;14.276;2022-10-19T14:47:57;6.10;;;5.25;;
12314;SDS011;23886;46.614;14.276;2022-10-19T14:50:28;10.65;;;6.00;;
12314;SDS011;23886;46.614;14.276;2022-10-19T14:53:08;5.97;;;5.47;;
12314;SDS011;23886;46.614;14.276;2022-10-19T14:55:52;7.43;;;5.60;;